createdAt,value
2018-11-26T00:01:26.483Z,29.70
2018-11-26T00:04:01.725Z,28.63
2018-11-26T00:06:37.235Z,30.60
2018-11-26T00:09:12.921Z,27.83
2018-11-26T00:11:48.444Z,30.47
2018-11-26T00:14:24.479Z,26.37
2018-11-26T00:19:38.847Z,29.93
2018-11-26T00:22:14.202Z,30.27
2018-11-26T00:24:50.182Z,31.57
2018-11-26T00:27:25.831Z,30.03
2018-11-26T00:30:01.810Z,28.90
2018-11-26T00:32:37.483Z,30.87
2018-11-26T00:35:13.553Z,26.70
2018-11-26T00:37:49.264Z,28.37
2018-11-26T00:40:24.465Z,30.40
2018-11-26T00:43:00.697Z,28.53
2018-11-26T00:45:36.327Z,30.53
2018-11-26T00:48:12.086Z,29.27
2018-11-26T00:50:48.020Z,30.57
2018-11-26T00:53:23.042Z,30.03
2018-11-26T00:55:58.918Z,32.73
2018-11-26T00:58:33.978Z,28.53
2018-11-26T01:01:09.963Z,29.70
2018-11-26T01:03:45.631Z,28.90
2018-11-26T01:06:21.583Z,27.43
2018-11-26T01:08:57.386Z,29.83
2018-11-26T01:11:33.206Z,26.83
2018-11-26T01:14:08.997Z,29.73
2018-11-26T01:16:44.015Z,22.33
2018-11-26T01:19:20.903Z,27.20
2018-11-26T01:21:56.981Z,28.50
2018-11-26T01:24:32.789Z,28.93
2018-11-26T01:27:09.856Z,28.57
2018-11-26T01:29:45.723Z,29.33
2018-11-26T01:32:21.549Z,28.87
2018-11-26T01:34:57.518Z,27.83
2018-11-26T01:37:33.351Z,27.57
2018-11-26T01:40:13.298Z,27.53
2018-11-26T01:42:49.416Z,29.07
2018-11-26T01:45:25.127Z,28.00
2018-11-26T01:48:01.011Z,29.53
2018-11-26T01:50:36.281Z,29.30
2018-11-26T01:53:11.869Z,28.70
2018-11-26T01:55:49.264Z,26.50
2018-11-26T01:58:25.005Z,29.37
2018-11-26T02:01:00.999Z,29.70
2018-11-26T02:03:36.712Z,28.70
2018-11-26T02:06:12.731Z,28.73
2018-11-26T02:08:48.579Z,27.83
2018-11-26T02:11:24.597Z,27.07
2018-11-26T02:14:00.098Z,29.50
2018-11-26T02:16:36.178Z,28.33
2018-11-26T02:19:11.981Z,26.93
2018-11-26T02:21:47.918Z,27.80
2018-11-26T02:24:23.717Z,29.20
2018-11-26T02:26:58.852Z,27.87
2018-11-26T02:29:34.573Z,28.23
2018-11-26T02:32:10.542Z,30.80
2018-11-26T02:34:46.202Z,30.10
2018-11-26T02:37:21.374Z,27.80
2018-11-26T02:39:57.125Z,31.03
2018-11-26T02:42:32.187Z,29.33
2018-11-26T02:45:07.498Z,30.73
2018-11-26T02:47:42.798Z,29.13
2018-11-26T02:50:18.527Z,29.40
2018-11-26T02:52:53.504Z,26.80
2018-11-26T02:55:29.326Z,30.03
2018-11-26T02:58:04.424Z,30.17
2018-11-26T03:00:40.298Z,29.33
2018-11-26T03:03:16.457Z,30.30
2018-11-26T03:05:52.146Z,29.93
2018-11-26T03:08:27.858Z,29.73
2018-11-26T03:11:03.643Z,30.63
2018-11-26T03:13:39.307Z,31.10
2018-11-26T03:16:15.039Z,30.20
2018-11-26T03:18:50.239Z,30.97
2018-11-26T03:21:25.809Z,31.10
2018-11-26T03:24:01.079Z,30.23
2018-11-26T03:26:36.845Z,30.20
2018-11-26T03:29:12.615Z,27.83
2018-11-26T03:31:47.632Z,27.70
2018-11-26T03:34:22.647Z,30.23
2018-11-26T03:36:58.397Z,31.10
2018-11-26T03:39:34.366Z,29.40
2018-11-26T03:42:09.410Z,30.63
2018-11-26T03:44:45.186Z,31.83
2018-11-26T03:47:20.973Z,31.67
2018-11-26T03:49:57.024Z,32.13
2018-11-26T03:52:33.830Z,31.07
2018-11-26T03:55:10.106Z,29.10
2018-11-26T03:57:45.533Z,29.93
2018-11-26T04:00:21.497Z,29.77
2018-11-26T04:02:57.262Z,30.87
2018-11-26T04:05:32.497Z,32.57
2018-11-26T04:08:08.219Z,30.03
2018-11-26T04:10:43.353Z,29.57
2018-11-26T04:13:18.939Z,30.73
2018-11-26T04:15:54.891Z,29.60
2018-11-26T04:18:30.596Z,30.53
2018-11-26T04:21:06.570Z,31.50
2018-11-26T04:23:42.404Z,31.43
2018-11-26T04:26:18.356Z,31.10
2018-11-26T04:28:54.134Z,33.00
2018-11-26T04:31:29.982Z,30.30
2018-11-26T04:34:05.761Z,29.53
2018-11-26T04:36:40.780Z,32.13
2018-11-26T04:39:16.579Z,30.50
2018-11-26T04:41:51.769Z,31.43
2018-11-26T04:44:27.608Z,30.10
2018-11-26T04:47:03.700Z,32.73
2018-11-26T04:49:39.370Z,31.27
2018-11-26T04:52:14.425Z,32.30
2018-11-26T04:54:50.213Z,31.73
2018-11-26T04:57:25.137Z,31.27
2018-11-26T05:00:00.876Z,31.63
2018-11-26T05:02:36.949Z,31.60
2018-11-26T05:05:13.135Z,30.80
2018-11-26T05:07:48.267Z,31.07
2018-11-26T05:10:23.985Z,30.03
2018-11-26T05:13:00.012Z,31.37
2018-11-26T05:15:35.801Z,31.87
2018-11-26T05:18:10.808Z,31.10
2018-11-26T05:20:45.725Z,30.87
2018-11-26T05:23:21.744Z,31.13
2018-11-26T05:25:57.433Z,29.60
2018-11-26T05:28:32.547Z,31.97
2018-11-26T05:31:08.292Z,33.10
2018-11-26T05:33:44.382Z,34.27
2018-11-26T05:36:20.177Z,34.23
2018-11-26T05:38:56.085Z,32.73
2018-11-26T05:41:32.121Z,32.77
2018-11-26T05:44:08.141Z,34.47
2018-11-26T05:46:43.111Z,32.97
2018-11-26T05:49:18.161Z,32.83
2018-11-26T05:51:53.923Z,33.07
2018-11-26T05:54:29.146Z,33.00
2018-11-26T05:57:05.170Z,33.00
2018-11-26T05:59:40.987Z,33.93
2018-11-26T06:02:16.592Z,34.20
2018-11-26T06:04:52.512Z,33.70
2018-11-26T06:07:27.898Z,30.73
2018-11-26T06:10:03.811Z,32.13
2018-11-26T06:12:39.638Z,32.83
2018-11-26T06:15:15.697Z,34.73
2018-11-26T06:17:51.321Z,32.20
2018-11-26T06:20:27.316Z,31.10
2018-11-26T06:23:03.101Z,33.07
2018-11-26T06:25:39.019Z,35.00
2018-11-26T06:28:13.965Z,35.30
2018-11-26T06:30:49.063Z,34.20
2018-11-26T06:33:24.814Z,32.73
2018-11-26T06:36:00.860Z,33.67
2018-11-26T06:38:36.374Z,33.23
2018-11-26T06:41:12.178Z,32.20
2018-11-26T06:43:48.007Z,32.40
2018-11-26T06:46:24.018Z,30.33
2018-11-26T06:48:59.719Z,31.70
2018-11-26T06:51:34.828Z,32.43
2018-11-26T06:54:10.506Z,29.97
2018-11-26T06:56:46.576Z,32.07
2018-11-26T06:59:22.260Z,31.67
2018-11-26T07:01:58.177Z,30.00
2018-11-26T07:04:35.015Z,32.37
2018-11-26T07:07:10.725Z,32.67
2018-11-26T07:09:46.560Z,32.73
2018-11-26T07:12:22.570Z,31.40
2018-11-26T07:14:58.371Z,29.93
2018-11-26T07:17:34.401Z,30.93
2018-11-26T07:20:18.118Z,32.80
2018-11-26T07:22:53.138Z,32.10
2018-11-26T07:25:29.042Z,31.53
2018-11-26T07:28:06.897Z,32.03
2018-11-26T07:30:42.287Z,32.57
2018-11-26T07:33:18.303Z,32.73
2018-11-26T07:35:53.729Z,32.60
2018-11-26T07:38:29.723Z,32.60
2018-11-26T07:41:06.223Z,30.40
2018-11-26T07:43:41.431Z,31.20
2018-11-26T07:46:17.249Z,30.57
2018-11-26T07:48:53.274Z,30.30
2018-11-26T07:51:28.913Z,30.47
2018-11-26T07:54:04.827Z,30.43
2018-11-26T07:56:40.596Z,28.80
2018-11-26T07:59:16.520Z,30.73
2018-11-26T08:01:52.320Z,30.37
2018-11-26T08:04:27.321Z,30.77
2018-11-26T08:07:02.332Z,31.43
2018-11-26T08:09:38.241Z,31.23
2018-11-26T08:12:15.119Z,29.07
2018-11-26T08:14:50.430Z,29.73
2018-11-26T08:17:25.848Z,32.00
2018-11-26T08:20:02.202Z,31.53
2018-11-26T08:22:37.192Z,30.53
2018-11-26T08:25:13.427Z,31.10
2018-11-26T08:27:49.581Z,30.00
2018-11-26T08:30:26.319Z,31.27
2018-11-26T08:33:01.971Z,29.50
2018-11-26T08:35:37.837Z,30.47
2018-11-26T08:38:19.120Z,30.90
2018-11-26T08:40:59.837Z,29.23
2018-11-26T08:43:39.461Z,30.83
2018-11-26T08:46:20.547Z,30.43
2018-11-26T08:49:01.069Z,31.33
2018-11-26T08:51:36.562Z,30.57
2018-11-26T08:54:12.578Z,31.47
2018-11-26T08:56:47.864Z,28.50
2018-11-26T08:59:23.778Z,27.57
2018-11-26T09:02:00.465Z,30.00
2018-11-26T09:04:41.423Z,29.10
2018-11-26T09:07:17.565Z,28.93
2018-11-26T09:09:52.838Z,29.37
2018-11-26T09:12:28.776Z,30.90
2018-11-26T09:15:05.244Z,29.67
2018-11-26T09:17:40.393Z,28.03
2018-11-26T09:20:16.147Z,26.23
2018-11-26T09:22:51.303Z,28.80
2018-11-26T09:25:26.234Z,28.90
2018-11-26T09:28:02.194Z,28.07
2018-11-26T09:30:38.848Z,28.20
2018-11-26T09:33:13.773Z,29.07
2018-11-26T09:35:49.750Z,30.23
2018-11-26T09:38:25.630Z,29.13
2018-11-26T09:41:02.640Z,26.57
2018-11-26T09:43:37.863Z,29.93
2018-11-26T09:46:33.846Z,28.73
2018-11-26T09:49:09.373Z,28.80
2018-11-26T09:51:45.221Z,29.23
2018-11-26T09:54:25.847Z,27.77
2018-11-26T09:56:57.029Z,27.33
2018-11-26T09:59:32.898Z,28.50
2018-11-26T10:02:08.843Z,28.50
2018-11-26T10:04:44.751Z,29.87
2018-11-26T10:07:22.229Z,29.90
2018-11-26T10:09:57.488Z,29.10
2018-11-26T10:12:33.378Z,28.13
2018-11-26T10:15:14.110Z,28.97
2018-11-26T10:17:50.030Z,29.53
2018-11-26T10:20:25.853Z,29.20
2018-11-26T10:23:01.766Z,26.47
2018-11-26T10:25:37.644Z,28.00
2018-11-26T10:28:12.574Z,28.47
2018-11-26T10:30:47.612Z,26.37
2018-11-26T10:33:22.597Z,29.00
2018-11-26T10:35:58.561Z,28.90
2018-11-26T10:38:34.321Z,27.80
2018-11-26T10:41:09.208Z,27.43
2018-11-26T10:43:44.321Z,27.97
2018-11-26T10:46:20.289Z,25.63
2018-11-26T10:48:56.304Z,28.80
2018-11-26T10:51:32.277Z,27.10
2018-11-26T10:54:07.278Z,28.73
2018-11-26T10:56:42.272Z,29.60
2018-11-26T10:59:18.011Z,28.27
2018-11-26T11:01:58.724Z,28.10
2018-11-26T11:04:34.146Z,28.10
2018-11-26T11:07:10.091Z,29.27
2018-11-26T11:09:45.843Z,27.80
2018-11-26T11:12:21.703Z,29.07
2018-11-26T11:14:57.393Z,26.43
2018-11-26T11:17:33.539Z,29.47
2018-11-26T11:20:14.553Z,29.03
2018-11-26T11:22:50.015Z,29.30
2018-11-26T11:25:25.164Z,28.47
2018-11-26T11:28:01.495Z,27.80
2018-11-26T11:30:36.642Z,29.80
2018-11-26T11:35:47.399Z,29.03
2018-11-26T11:38:23.163Z,28.20
2018-11-26T11:40:58.274Z,28.00
2018-11-26T11:43:34.160Z,28.50
2018-11-26T11:46:10.013Z,28.83
2018-11-26T11:48:44.970Z,28.70
2018-11-26T11:51:21.028Z,29.17
2018-11-26T11:53:56.933Z,29.77
2018-11-26T11:56:32.939Z,30.90
2018-11-26T11:59:08.450Z,30.33
2018-11-26T12:01:43.898Z,29.77
2018-11-26T12:04:19.765Z,29.87
2018-11-26T12:06:54.896Z,29.97
2018-11-26T12:09:30.647Z,20.80
2018-11-26T12:12:06.534Z,29.17
2018-11-26T12:14:42.461Z,29.40
2018-11-26T12:17:18.310Z,30.60
2018-11-26T12:19:53.312Z,31.10
2018-11-26T12:22:29.179Z,30.73
2018-11-26T12:25:05.869Z,31.87
2018-11-26T12:27:40.974Z,31.73
2018-11-26T12:30:18.634Z,30.30
2018-11-26T12:32:54.034Z,27.97
2018-11-26T12:35:29.171Z,30.77
2018-11-26T12:38:04.280Z,31.07
2018-11-26T12:40:39.463Z,30.27
2018-11-26T12:43:14.984Z,30.70
2018-11-26T12:45:50.420Z,30.93
2018-11-26T12:48:25.459Z,31.97
2018-11-26T12:51:00.549Z,30.77
2018-11-26T12:53:36.191Z,32.30
2018-11-26T12:56:11.691Z,30.37
2018-11-26T12:58:46.921Z,32.13
2018-11-26T13:01:21.861Z,30.37
2018-11-26T13:03:58.349Z,29.87
2018-11-26T13:06:33.667Z,28.97
2018-11-26T13:09:09.148Z,31.33
2018-11-26T13:11:44.559Z,31.60
2018-11-26T13:14:19.480Z,31.23
2018-11-26T13:16:55.238Z,31.43
2018-11-26T13:19:30.997Z,29.43
2018-11-26T13:22:07.096Z,32.03
2018-11-26T13:24:42.676Z,30.30
2018-11-26T13:27:17.853Z,29.37
2018-11-26T13:29:53.304Z,28.83
2018-11-26T13:32:29.263Z,31.10
2018-11-26T13:35:07.175Z,31.47
2018-11-26T13:37:42.421Z,30.67
2018-11-26T13:40:19.017Z,30.50
2018-11-26T13:42:54.957Z,30.57
2018-11-26T13:45:34.732Z,30.20
2018-11-26T13:48:11.135Z,31.07
2018-11-26T13:50:54.103Z,32.60
2018-11-26T13:53:29.708Z,30.50
2018-11-26T13:56:04.717Z,33.87
2018-11-26T13:58:40.037Z,30.00
2018-11-26T14:01:15.473Z,31.17
2018-11-26T14:03:51.997Z,32.00
2018-11-26T14:06:27.143Z,30.37
2018-11-26T14:09:02.717Z,30.40
2018-11-26T14:11:37.982Z,32.50
2018-11-26T14:14:13.615Z,31.00
2018-11-26T14:16:49.280Z,30.77
2018-11-26T14:19:25.075Z,32.50
2018-11-26T14:22:00.993Z,31.40
2018-11-26T14:24:36.823Z,32.17
2018-11-26T14:27:12.187Z,32.53
2018-11-26T14:29:48.123Z,32.40
2018-11-26T14:32:23.948Z,31.20
2018-11-26T14:34:59.359Z,32.00
2018-11-26T14:37:34.713Z,31.40
2018-11-26T14:40:13.323Z,34.10
2018-11-26T14:42:49.023Z,32.80
2018-11-26T14:45:24.286Z,32.73
2018-11-26T14:48:00.344Z,32.30
2018-11-26T14:50:35.567Z,33.63
2018-11-26T14:53:14.198Z,34.07
2018-11-26T14:55:49.855Z,33.90
2018-11-26T14:58:25.505Z,32.00
2018-11-26T15:01:00.445Z,33.70
2018-11-26T15:03:35.432Z,34.73
2018-11-26T15:06:11.371Z,34.20
2018-11-26T15:08:46.483Z,35.37
2018-11-26T15:11:21.721Z,33.50
2018-11-26T15:13:56.817Z,34.13
2018-11-26T15:16:32.652Z,33.63
2018-11-26T15:19:07.700Z,34.83
2018-11-26T15:21:43.455Z,34.47
2018-11-26T15:24:19.120Z,34.77
2018-11-26T15:26:54.023Z,36.17
2018-11-26T15:29:29.698Z,33.03
2018-11-26T15:32:05.179Z,32.30
2018-11-26T15:34:40.778Z,32.30
2018-11-26T15:37:16.533Z,32.60
2018-11-26T15:39:53.457Z,32.20
2018-11-26T15:42:29.278Z,33.50
2018-11-26T15:45:07.044Z,33.17
2018-11-26T15:47:42.004Z,34.53
2018-11-26T15:50:17.766Z,31.53
2018-11-26T15:52:53.092Z,31.33
2018-11-26T15:55:28.177Z,32.70
2018-11-26T15:58:03.740Z,33.13
2018-11-26T16:00:39.182Z,32.13
2018-11-26T16:03:14.294Z,33.00
2018-11-26T16:05:49.373Z,32.73
2018-11-26T16:08:24.774Z,29.00
2018-11-26T16:11:00.579Z,31.93
2018-11-26T16:13:35.583Z,31.50
2018-11-26T16:16:11.100Z,28.93
2018-11-26T16:18:46.332Z,32.20
2018-11-26T16:21:22.610Z,30.17
2018-11-26T16:23:57.620Z,30.17
2018-11-26T16:26:33.102Z,30.43
2018-11-26T16:29:08.356Z,29.53
2018-11-26T16:31:43.883Z,31.47
2018-11-26T16:34:18.957Z,30.03
2018-11-26T16:36:53.961Z,29.87
2018-11-26T16:39:29.552Z,31.13
2018-11-26T16:42:04.908Z,31.33
2018-11-26T16:44:39.942Z,29.77
2018-11-26T16:47:14.998Z,32.63
2018-11-26T16:49:50.262Z,29.53
2018-11-26T16:52:25.499Z,30.53
2018-11-26T16:55:00.543Z,31.97
2018-11-26T16:57:35.961Z,30.73
2018-11-26T17:00:21.814Z,33.23
2018-11-26T17:02:58.784Z,28.83
2018-11-26T17:05:36.137Z,31.77
2018-11-26T17:08:14.730Z,31.77
2018-11-26T17:10:49.906Z,32.17
2018-11-26T17:13:25.209Z,30.93
2018-11-26T17:16:00.261Z,31.53
2018-11-26T17:18:35.474Z,32.13
2018-11-26T17:21:10.824Z,30.70
2018-11-26T17:23:45.763Z,30.47
2018-11-26T17:26:21.645Z,32.97
2018-11-26T17:28:56.750Z,30.70
2018-11-26T17:31:31.974Z,31.70
2018-11-26T17:34:07.448Z,32.00
2018-11-26T17:36:43.079Z,31.40
2018-11-26T17:39:18.379Z,31.97
2018-11-26T17:41:54.112Z,31.60
2018-11-26T17:44:29.554Z,31.33
2018-11-26T17:47:05.297Z,32.23
2018-11-26T17:49:40.995Z,31.40
2018-11-26T17:52:16.842Z,32.63
2018-11-26T17:54:52.033Z,33.57
2018-11-26T17:57:27.824Z,31.43
2018-11-26T18:00:03.021Z,32.47
2018-11-26T18:02:38.904Z,32.37
2018-11-26T18:05:15.858Z,32.90
2018-11-26T18:07:56.434Z,31.13
2018-11-26T18:10:31.738Z,33.73
2018-11-26T18:13:07.222Z,33.27
2018-11-26T18:15:42.261Z,32.53
2018-11-26T18:18:19.641Z,33.63
2018-11-26T18:20:55.354Z,33.97
2018-11-26T18:23:30.289Z,34.00
2018-11-26T18:26:05.415Z,32.77
2018-11-26T18:28:41.794Z,33.80
2018-11-26T18:31:17.717Z,35.43
2018-11-26T18:33:52.696Z,30.93
2018-11-26T18:36:28.519Z,32.83
2018-11-26T18:39:04.134Z,33.47
2018-11-26T18:41:39.845Z,32.70
2018-11-26T18:44:15.632Z,33.23
2018-11-26T18:46:50.669Z,32.60
2018-11-26T18:49:26.219Z,33.33
2018-11-26T18:52:01.550Z,31.83
2018-11-26T18:54:36.961Z,33.63
2018-11-26T18:57:12.100Z,31.47
2018-11-26T18:59:47.532Z,33.63
2018-11-26T19:02:23.188Z,33.50
2018-11-26T19:04:58.611Z,32.70
2018-11-26T19:07:33.586Z,34.27
2018-11-26T19:10:11.819Z,31.10
2018-11-26T19:12:48.982Z,33.60
2018-11-26T19:15:26.356Z,33.93
2018-11-26T19:18:11.103Z,32.97
2018-11-26T19:20:46.966Z,31.80
2018-11-26T19:23:23.004Z,33.73
2018-11-26T19:25:58.167Z,31.47
2018-11-26T19:28:33.234Z,32.33
2018-11-26T19:31:08.583Z,34.13
2018-11-26T19:33:43.653Z,32.67
2018-11-26T19:36:18.563Z,34.23
2018-11-26T19:38:53.739Z,32.33
2018-11-26T19:41:29.033Z,33.20
2018-11-26T19:44:05.018Z,33.17
2018-11-26T19:46:39.998Z,32.97
2018-11-26T19:49:15.912Z,32.73
2018-11-26T19:51:50.874Z,33.23
2018-11-26T19:54:26.283Z,33.57
2018-11-26T19:57:02.050Z,33.10
2018-11-26T19:59:37.968Z,33.33
2018-11-26T20:02:13.043Z,33.40
2018-11-26T20:04:53.153Z,34.20
2018-11-26T20:07:28.828Z,31.67
2018-11-26T20:10:04.672Z,31.30
2018-11-26T20:12:40.235Z,30.23
2018-11-26T20:15:16.962Z,32.10
2018-11-26T20:17:52.161Z,29.13
2018-11-26T20:20:27.332Z,28.43
2018-11-26T20:23:02.747Z,32.33
2018-11-26T20:25:37.845Z,29.43
2018-11-26T20:28:13.711Z,29.90
2018-11-26T20:30:48.830Z,31.43
2018-11-26T20:33:24.187Z,30.63
2018-11-26T20:35:59.682Z,30.13
2018-11-26T20:38:34.902Z,28.17
2018-11-26T20:41:10.861Z,30.37
2018-11-26T20:43:45.763Z,31.13
2018-11-26T20:46:20.998Z,30.07
2018-11-26T20:48:56.002Z,28.77
2018-11-26T20:51:31.253Z,29.17
2018-11-26T20:54:06.801Z,28.87
2018-11-26T20:56:42.644Z,29.27
2018-11-26T20:59:17.683Z,30.83
2018-11-26T21:01:53.867Z,29.13
2018-11-26T21:04:29.963Z,30.60
2018-11-26T21:07:06.113Z,30.13
2018-11-26T21:09:42.123Z,30.17
2018-11-26T21:12:18.296Z,29.23
2018-11-26T21:14:53.747Z,30.67
2018-11-26T21:17:29.713Z,29.50
2018-11-26T21:20:10.572Z,29.57
2018-11-26T21:22:46.428Z,30.03
2018-11-26T21:25:22.508Z,28.77
2018-11-26T21:27:58.340Z,29.33
2018-11-26T21:30:34.001Z,28.93
2018-11-26T21:33:09.893Z,29.00
2018-11-26T21:35:45.696Z,28.57
2018-11-26T21:38:21.138Z,27.73
2018-11-26T21:40:57.026Z,28.10
2018-11-26T21:43:32.839Z,28.33
2018-11-26T21:46:08.775Z,28.17
2018-11-26T21:48:44.597Z,28.10
2018-11-26T21:51:20.696Z,29.60
2018-11-26T21:53:55.809Z,28.20
2018-11-26T21:56:31.178Z,28.27
2018-11-26T21:59:06.298Z,30.87
2018-11-26T22:01:42.256Z,28.33
2018-11-26T22:04:18.225Z,28.07
2018-11-26T22:06:54.497Z,27.47
2018-11-26T22:09:30.313Z,27.77
2018-11-26T22:12:05.951Z,28.17
2018-11-26T22:14:41.865Z,26.53
2018-11-26T22:17:17.509Z,27.33
2018-11-26T22:19:53.360Z,29.43
2018-11-26T22:22:29.266Z,27.87
2018-11-26T22:25:05.341Z,27.20
2018-11-26T22:27:40.904Z,28.13
2018-11-26T22:30:20.079Z,27.70
2018-11-26T22:32:55.778Z,28.17
2018-11-26T22:35:31.116Z,29.43
2018-11-26T22:38:07.331Z,29.07
2018-11-26T22:40:43.182Z,28.50
2018-11-26T22:43:18.915Z,27.13
2018-11-26T22:45:54.698Z,27.53
2018-11-26T22:48:29.808Z,27.13
2018-11-26T22:51:05.282Z,28.17
2018-11-26T22:53:41.147Z,29.20
2018-11-26T22:56:16.701Z,27.30
2018-11-26T22:58:52.714Z,27.77
2018-11-26T23:01:27.728Z,27.27
2018-11-26T23:04:04.769Z,27.63
2018-11-26T23:06:40.048Z,27.50
2018-11-26T23:09:15.017Z,28.00
2018-11-26T23:11:50.805Z,28.17
2018-11-26T23:14:26.088Z,28.23
2018-11-26T23:17:01.996Z,28.13
2018-11-26T23:19:37.067Z,27.87
2018-11-26T23:22:12.171Z,29.30
2018-11-26T23:24:47.150Z,28.87
2018-11-26T23:27:23.085Z,27.73
2018-11-26T23:29:58.139Z,28.80
2018-11-26T23:32:33.305Z,29.20
2018-11-26T23:35:08.824Z,28.93
2018-11-26T23:37:44.041Z,30.23
2018-11-26T23:40:19.401Z,27.50
2018-11-26T23:42:54.943Z,27.63
2018-11-26T23:45:30.333Z,27.97
2018-11-26T23:48:06.285Z,26.90
2018-11-26T23:50:41.395Z,27.47
2018-11-26T23:53:16.491Z,28.57
2018-11-26T23:55:51.886Z,29.57
2018-11-26T23:58:27.460Z,28.17
